Time;durP1;ratioP1;P1;durP2;ratioP2;P2;SDS_P1;SDS_P2;PMS_P1;PMS_P2;Temp;Humidity;BMP_temperature;BMP_pressure;BME280_temperature;BME280_humidity;BME280_pressure;Samples;Min_cycle;Max_cycle;Signal;HPM_P1;HPM_P2
2022/06/05 00:02:32;;;;;;;;;;;24.90;99.70;;;;;;4838123;29;19948;-63
2022/06/05 00:05:08;;;;;;;;;;;24.80;99.70;;;;;;4842714;29;19929;-61
2022/06/05 00:07:38;;;;;;;;;;;24.80;99.70;;;;;;4858466;29;19931;-60
2022/06/05 00:10:08;;;;;;;;;;;24.80;99.70;;;;;;4852702;29;19943;-60
2022/06/05 00:12:54;;;;;;;;;;;24.80;99.70;;;;;;4840378;29;19933;-61
2022/06/05 00:15:21;;;;;;;;;;;24.80;99.70;;;;;;4837565;29;19939;-61
2022/06/05 00:17:48;;;;;;;;;;;24.80;99.70;;;;;;4847975;29;19932;-62
2022/06/05 00:20:16;;;;;;;;;;;24.80;99.70;;;;;;4859205;29;20019;-62
2022/06/05 00:22:44;;;;;;;;;;;24.80;99.70;;;;;;4859969;29;19932;-61
2022/06/05 00:25:11;;;;;;;;;;;24.80;99.80;;;;;;4865856;29;20405;-62
2022/06/05 00:27:46;;;;;;;;;;;24.80;99.80;;;;;;4848036;29;19944;-61
2022/06/05 00:30:21;;;;;;;;;;;24.80;99.80;;;;;;4850648;29;19936;-59
2022/06/05 00:32:51;;;;;;;;;;;24.80;99.80;;;;;;4841365;29;19929;-62
2022/06/05 00:35:21;;;;;;;;;;;24.80;99.80;;;;;;4833970;29;20400;-61
2022/06/05 00:37:53;;;;;;;;;;;24.80;99.90;;;;;;4841358;29;19935;-61
2022/06/05 00:40:33;;;;;;;;;;;24.80;99.90;;;;;;4856753;29;19932;-60
2022/06/05 00:43:01;;;;;;;;;;;24.80;99.80;;;;;;4855441;29;20364;-61
2022/06/05 00:45:29;;;;;;;;;;;24.80;99.90;;;;;;4847820;29;19932;-59
2022/06/05 00:47:56;;;;;;;;;;;24.80;99.80;;;;;;4838905;29;19943;-58
2022/06/05 00:50:25;;;;;;;;;;;24.80;99.80;;;;;;4845564;29;19928;-61
2022/06/05 00:52:55;;;;;;;;;;;24.80;99.90;;;;;;4846417;29;19940;-58
2022/06/05 00:55:23;;;;;;;;;;;24.70;99.90;;;;;;4851913;29;19939;-57
2022/06/05 00:57:52;;;;;;;;;;;24.70;99.90;;;;;;4839779;29;19940;-62
2022/06/05 01:00:21;;;;;;;;;;;24.70;99.90;;;;;;4839145;29;20396;-62
2022/06/05 01:02:50;;;;;;;;;;;24.70;99.80;;;;;;4846035;29;20293;-61
2022/06/05 01:05:19;;;;;;;;;;;24.70;99.80;;;;;;4840975;29;19952;-61
2022/06/05 01:07:47;;;;;;;;;;;24.70;99.80;;;;;;4840415;29;19937;-58
2022/06/05 01:10:15;;;;;;;;;;;24.70;99.80;;;;;;4846983;29;19928;-62
2022/06/05 01:12:57;;;;;;;;;;;24.70;99.80;;;;;;4848375;29;19928;-60
2022/06/05 01:15:33;;;;;;;;;;;24.70;99.90;;;;;;4839488;29;19944;-63
2022/06/05 01:18:19;;;;;;;;;;;24.70;99.80;;;;;;4855433;29;19943;-62
2022/06/05 01:20:59;;;;;;;;;;;24.70;99.80;;;;;;4839430;29;19939;-62
2022/06/05 01:23:33;;;;;;;;;;;24.70;99.90;;;;;;4856676;29;20046;-60
2022/06/05 01:26:05;;;;;;;;;;;24.70;99.90;;;;;;4839953;29;20334;-57
2022/06/05 01:28:38;;;;;;;;;;;24.70;99.90;;;;;;4839674;29;19932;-63
2022/06/05 01:31:28;;;;;;;;;;;24.70;99.90;;;;;;4854698;29;19940;-63
2022/06/05 01:33:59;;;;;;;;;;;24.70;99.90;;;;;;4851834;29;19932;-63
2022/06/05 01:36:34;;;;;;;;;;;24.70;99.90;;;;;;4843570;29;19952;-62
2022/06/05 01:39:14;;;;;;;;;;;24.70;99.90;;;;;;4846331;29;19932;-61
2022/06/05 01:41:46;;;;;;;;;;;24.70;99.90;;;;;;4846640;29;19967;-61
2022/06/05 01:44:23;;;;;;;;;;;24.70;99.90;;;;;;4845017;29;19936;-61
2022/06/05 01:46:50;;;;;;;;;;;24.70;99.80;;;;;;4845405;29;20383;-61
2022/06/05 01:49:27;;;;;;;;;;;24.60;99.90;;;;;;4849577;29;19936;-64
2022/06/05 01:51:57;;;;;;;;;;;24.60;99.90;;;;;;4850929;29;19928;-62
2022/06/05 01:54:33;;;;;;;;;;;24.60;99.90;;;;;;4841080;29;20389;-62
2022/06/05 01:57:03;;;;;;;;;;;24.60;99.80;;;;;;4842950;29;20028;-60
2022/06/05 01:59:40;;;;;;;;;;;24.60;99.80;;;;;;4840673;29;19935;-61
2022/06/05 02:02:09;;;;;;;;;;;24.60;99.80;;;;;;4847947;29;20429;-63
2022/06/05 02:04:45;;;;;;;;;;;24.60;99.80;;;;;;4839026;29;19953;-59
2022/06/05 02:07:22;;;;;;;;;;;24.60;99.80;;;;;;4861819;29;20405;-59
2022/06/05 02:09:53;;;;;;;;;;;24.60;99.80;;;;;;4847983;29;19932;-61
2022/06/05 02:12:22;;;;;;;;;;;24.50;98.40;;;;;;4866875;29;20207;-65
2022/06/05 02:14:49;;;;;;;;;;;24.20;97.00;;;;;;4840308;29;20451;-62
2022/06/05 02:17:16;;;;;;;;;;;24.10;97.50;;;;;;4857714;29;20393;-62
2022/06/05 02:19:44;;;;;;;;;;;24.20;97.70;;;;;;4841457;29;19939;-61
2022/06/05 02:22:15;;;;;;;;;;;24.30;97.80;;;;;;4849721;29;19940;-61
2022/06/05 02:24:42;;;;;;;;;;;24.30;97.70;;;;;;4837791;29;19940;-59
2022/06/05 02:27:09;;;;;;;;;;;24.40;97.70;;;;;;4847323;29;20419;-60
2022/06/05 02:29:37;;;;;;;;;;;24.50;97.70;;;;;;4838488;29;20312;-61
2022/06/05 02:32:07;;;;;;;;;;;24.50;97.70;;;;;;4845500;29;20339;-59
2022/06/05 02:34:34;;;;;;;;;;;24.40;97.70;;;;;;4853410;29;19928;-60
2022/06/05 02:37:20;;;;;;;;;;;24.50;97.80;;;;;;4841530;29;19933;-62
2022/06/05 02:39:56;;;;;;;;;;;24.40;97.80;;;;;;4848966;29;19935;-59
2022/06/05 02:42:29;;;;;;;;;;;24.40;97.80;;;;;;4850194;29;19929;-57
2022/06/05 02:44:59;;;;;;;;;;;24.50;97.90;;;;;;4842514;29;19932;-62
2022/06/05 02:47:30;;;;;;;;;;;24.40;97.90;;;;;;4850364;29;19943;-61
2022/06/05 02:50:04;;;;;;;;;;;24.50;98.00;;;;;;4848057;29;19932;-64
2022/06/05 02:52:31;;;;;;;;;;;24.50;98.00;;;;;;4850355;29;19943;-60
2022/06/05 02:55:05;;;;;;;;;;;24.50;98.10;;;;;;4857146;29;19931;-62
2022/06/05 02:57:32;;;;;;;;;;;24.50;98.10;;;;;;4858539;29;19940;-59
2022/06/05 02:59:59;;;;;;;;;;;24.40;98.10;;;;;;4838264;29;19929;-61
2022/06/05 03:05:12;;;;;;;;;;;24.50;98.20;;;;;;4842639;29;19936;-57
2022/06/05 03:07:40;;;;;;;;;;;24.50;98.20;;;;;;4834024;29;20008;-60
2022/06/05 03:10:07;;;;;;;;;;;24.50;98.30;;;;;;4855934;29;19951;-61
2022/06/05 03:12:36;;;;;;;;;;;24.40;98.30;;;;;;4821782;29;19933;-56
2022/06/05 03:15:03;;;;;;;;;;;24.50;98.30;;;;;;4830571;29;19936;-60
2022/06/05 03:17:30;;;;;;;;;;;24.40;98.30;;;;;;4819248;29;20306;-61
2022/06/05 03:19:58;;;;;;;;;;;24.50;98.30;;;;;;4829322;29;19939;-62
2022/06/05 03:22:25;;;;;;;;;;;24.40;98.30;;;;;;4844181;29;19986;-59
2022/06/05 03:24:52;;;;;;;;;;;24.50;98.40;;;;;;4820193;29;20303;-61
2022/06/05 03:27:20;;;;;;;;;;;24.40;98.40;;;;;;4824618;29;20358;-59
2022/06/05 03:29:48;;;;;;;;;;;24.40;98.40;;;;;;4826262;29;19941;-55
2022/06/05 03:32:15;;;;;;;;;;;24.40;98.40;;;;;;4834705;29;19939;-63
2022/06/05 03:34:42;;;;;;;;;;;24.40;98.40;;;;;;4821242;29;19929;-61
2022/06/05 03:37:09;;;;;;;;;;;24.40;98.50;;;;;;4825849;29;19929;-62
2022/06/05 03:39:36;;;;;;;;;;;24.40;98.50;;;;;;4826656;29;19933;-70
2022/06/05 03:42:04;;;;;;;;;;;24.40;98.50;;;;;;4829897;29;20424;-60
2022/06/05 03:44:34;;;;;;;;;;;24.40;98.50;;;;;;4819384;29;19933;-59
2022/06/05 03:47:01;;;;;;;;;;;24.40;98.50;;;;;;4843122;29;19933;-61
2022/06/05 03:49:28;;;;;;;;;;;24.40;98.50;;;;;;4824839;29;19940;-60
2022/06/05 03:51:56;;;;;;;;;;;24.40;98.50;;;;;;4820071;29;19949;-61
2022/06/05 03:54:23;;;;;;;;;;;24.40;98.50;;;;;;4820005;29;19933;-61
2022/06/05 03:56:51;;;;;;;;;;;24.40;98.50;;;;;;4834444;29;20274;-59
2022/06/05 03:59:18;;;;;;;;;;;24.40;98.60;;;;;;4819913;29;20469;-62
2022/06/05 04:01:45;;;;;;;;;;;24.40;98.60;;;;;;4823953;29;19936;-61
2022/06/05 04:04:12;;;;;;;;;;;24.40;98.60;;;;;;4818267;29;19928;-61
2022/06/05 04:06:39;;;;;;;;;;;24.40;98.60;;;;;;4823543;29;19933;-61
2022/06/05 04:09:07;;;;;;;;;;;24.40;98.60;;;;;;4821572;29;19939;-57
2022/06/05 04:11:36;;;;;;;;;;;24.40;98.60;;;;;;4837545;29;20327;-62
2022/06/05 04:14:04;;;;;;;;;;;24.40;98.60;;;;;;4852865;29;19928;-60
2022/06/05 04:16:32;;;;;;;;;;;24.40;98.60;;;;;;4847811;29;19939;-59
2022/06/05 04:19:00;;;;;;;;;;;24.40;98.60;;;;;;4844459;29;20439;-64
2022/06/05 04:21:29;;;;;;;;;;;24.40;98.60;;;;;;4851114;29;19928;-61
2022/06/05 04:23:57;;;;;;;;;;;24.40;98.70;;;;;;4857130;29;19928;-62
2022/06/05 04:26:26;;;;;;;;;;;24.40;98.70;;;;;;4863668;29;19929;-62
2022/06/05 04:28:54;;;;;;;;;;;24.40;98.70;;;;;;4841738;29;19948;-62
2022/06/05 04:31:26;;;;;;;;;;;24.40;98.70;;;;;;4844816;29;20015;-62
2022/06/05 04:33:54;;;;;;;;;;;24.40;98.70;;;;;;4841403;29;19936;-62
2022/06/05 04:36:22;;;;;;;;;;;24.40;98.70;;;;;;4854200;29;19944;-61
2022/06/05 04:38:49;;;;;;;;;;;24.30;98.70;;;;;;4857164;29;19939;-67
2022/06/05 04:41:18;;;;;;;;;;;24.40;98.70;;;;;;4868264;29;19938;-62
2022/06/05 04:43:46;;;;;;;;;;;24.50;98.70;;;;;;4857654;29;20434;-62
2022/06/05 04:46:15;;;;;;;;;;;24.50;98.70;;;;;;4858461;29;19932;-60
2022/06/05 04:48:42;;;;;;;;;;;24.50;98.70;;;;;;4860297;29;19935;-60
2022/06/05 04:51:12;;;;;;;;;;;24.50;98.70;;;;;;4843419;29;19943;-60
2022/06/05 04:53:40;;;;;;;;;;;24.50;98.80;;;;;;4854365;29;19936;-62
2022/06/05 04:56:10;;;;;;;;;;;24.60;98.90;;;;;;4843542;29;19932;-62
2022/06/05 04:58:37;;;;;;;;;;;24.60;98.80;;;;;;4851542;29;19929;-66
2022/06/05 05:01:15;;;;;;;;;;;24.60;98.80;;;;;;4835369;29;19939;-61
2022/06/05 05:03:43;;;;;;;;;;;24.60;98.90;;;;;;4853073;29;19939;-60
2022/06/05 05:06:12;;;;;;;;;;;24.60;98.90;;;;;;4846758;29;19959;-61
2022/06/05 05:08:39;;;;;;;;;;;24.60;98.90;;;;;;4853556;29;19932;-59
2022/06/05 05:11:07;;;;;;;;;;;24.60;98.90;;;;;;4853300;29;19932;-59
2022/06/05 05:13:34;;;;;;;;;;;24.60;98.80;;;;;;4859333;29;19935;-60
2022/06/05 05:16:01;;;;;;;;;;;24.50;98.60;;;;;;4850798;29;19932;-60
2022/06/05 05:18:28;;;;;;;;;;;24.50;98.40;;;;;;4843019;29;20040;-60
2022/06/05 05:21:03;;;;;;;;;;;24.50;97.40;;;;;;4845855;29;19933;-59
2022/06/05 05:23:30;;;;;;;;;;;24.50;97.80;;;;;;4861933;29;19936;-59
2022/06/05 05:26:04;;;;;;;;;;;24.50;97.60;;;;;;4853227;29;19929;-59
2022/06/05 05:28:32;;;;;;;;;;;24.40;97.60;;;;;;4839596;29;19949;-60
2022/06/05 05:30:59;;;;;;;;;;;24.40;97.30;;;;;;4840769;29;20015;-60
2022/06/05 05:33:26;;;;;;;;;;;24.40;97.40;;;;;;4825634;29;19932;-62
2022/06/05 05:35:54;;;;;;;;;;;24.50;97.40;;;;;;4863755;29;19932;-60
2022/06/05 05:38:21;;;;;;;;;;;24.40;97.40;;;;;;4845352;29;19932;-61
2022/06/05 05:43:34;;;;;;;;;;;24.40;97.80;;;;;;4863417;29;19935;-55
2022/06/05 05:46:01;;;;;;;;;;;24.40;98.40;;;;;;4847165;29;19932;-56
2022/06/05 05:48:28;;;;;;;;;;;24.40;98.30;;;;;;4848292;29;19932;-63
2022/06/05 05:50:55;;;;;;;;;;;24.40;98.40;;;;;;4851773;29;19932;-60
2022/06/05 05:53:22;;;;;;;;;;;24.40;98.90;;;;;;4843807;29;19940;-62
2022/06/05 05:55:49;;;;;;;;;;;24.40;99.00;;;;;;4859002;29;19936;-60
2022/06/05 05:58:16;;;;;;;;;;;24.50;99.20;;;;;;4839208;29;19932;-65
2022/06/05 06:00:44;;;;;;;;;;;24.50;99.10;;;;;;4841290;29;19936;-58
2022/06/05 06:03:11;;;;;;;;;;;24.50;99.10;;;;;;4873230;29;19939;-65
2022/06/05 06:05:38;;;;;;;;;;;24.50;99.00;;;;;;4835694;29;19932;-63
2022/06/05 06:08:05;;;;;;;;;;;24.50;99.00;;;;;;4849900;29;19932;-64
2022/06/05 06:10:32;;;;;;;;;;;24.50;98.80;;;;;;4853243;29;20403;-64
2022/06/05 06:12:59;;;;;;;;;;;24.50;99.20;;;;;;4854017;29;19932;-59
2022/06/05 06:15:27;;;;;;;;;;;24.50;99.20;;;;;;4844068;29;19943;-60
2022/06/05 06:17:54;;;;;;;;;;;24.50;98.90;;;;;;4852505;29;19928;-61
2022/06/05 06:20:21;;;;;;;;;;;24.40;98.70;;;;;;4843158;29;20600;-61
2022/06/05 06:22:48;;;;;;;;;;;24.50;98.70;;;;;;4847443;29;19933;-62
2022/06/05 06:25:15;;;;;;;;;;;24.40;98.70;;;;;;4850820;29;19936;-58
2022/06/05 06:27:42;;;;;;;;;;;24.50;98.70;;;;;;4855498;29;19936;-59
2022/06/05 06:30:10;;;;;;;;;;;24.40;98.80;;;;;;4840105;29;19932;-62
2022/06/05 06:32:38;;;;;;;;;;;24.40;98.70;;;;;;4857715;29;19948;-59
2022/06/05 06:35:05;;;;;;;;;;;24.40;98.70;;;;;;4845316;29;19932;-60
2022/06/05 06:37:32;;;;;;;;;;;24.40;98.70;;;;;;4854140;29;19945;-60
2022/06/05 06:39:59;;;;;;;;;;;24.40;98.70;;;;;;4847487;29;19936;-62
2022/06/05 06:42:27;;;;;;;;;;;24.40;98.80;;;;;;4861100;29;19956;-65
2022/06/05 06:44:56;;;;;;;;;;;24.40;99.10;;;;;;4863466;29;19928;-60
2022/06/05 06:47:23;;;;;;;;;;;24.40;99.10;;;;;;4856366;29;19932;-60
2022/06/05 06:49:50;;;;;;;;;;;24.50;99.20;;;;;;4843117;29;19936;-59
2022/06/05 06:52:17;;;;;;;;;;;24.40;99.10;;;;;;4850160;29;19939;-61
2022/06/05 06:54:44;;;;;;;;;;;24.40;99.10;;;;;;4848030;29;19933;-63
2022/06/05 06:57:11;;;;;;;;;;;24.40;99.00;;;;;;4849792;29;19929;-62
2022/06/05 06:59:39;;;;;;;;;;;24.40;99.20;;;;;;4852157;29;19928;-63
2022/06/05 07:02:06;;;;;;;;;;;24.40;99.30;;;;;;4843168;29;19933;-56
2022/06/05 07:04:33;;;;;;;;;;;24.40;99.40;;;;;;4837727;29;19932;-61
2022/06/05 07:07:00;;;;;;;;;;;24.40;99.20;;;;;;4851699;29;20354;-61
2022/06/05 07:09:27;;;;;;;;;;;24.40;99.30;;;;;;4854923;29;19928;-61
2022/06/05 07:11:54;;;;;;;;;;;24.40;99.00;;;;;;4861530;29;19928;-60
2022/06/05 07:14:22;;;;;;;;;;;24.30;99.10;;;;;;4856788;29;19947;-60
2022/06/05 07:16:49;;;;;;;;;;;24.40;98.90;;;;;;4860357;29;19939;-62
2022/06/05 07:19:17;;;;;;;;;;;24.30;99.00;;;;;;4866318;29;19932;-59
2022/06/05 07:21:44;;;;;;;;;;;24.40;99.10;;;;;;4878332;29;19938;-59
2022/06/05 07:24:11;;;;;;;;;;;24.40;99.10;;;;;;4868300;29;19927;-61
2022/06/05 07:26:39;;;;;;;;;;;24.40;99.10;;;;;;4850854;29;19928;-62
2022/06/05 07:29:06;;;;;;;;;;;24.40;99.30;;;;;;4862123;29;19928;-60
2022/06/05 07:31:39;;;;;;;;;;;24.30;99.30;;;;;;4869154;29;20455;-63
2022/06/05 07:34:08;;;;;;;;;;;24.30;99.50;;;;;;4873810;29;19955;-61
2022/06/05 07:36:35;;;;;;;;;;;24.40;99.50;;;;;;4873959;29;19932;-57
2022/06/05 07:39:03;;;;;;;;;;;24.30;99.30;;;;;;4866190;29;19939;-60
2022/06/05 07:41:32;;;;;;;;;;;24.30;99.20;;;;;;4859402;29;20230;-62
2022/06/05 07:44:00;;;;;;;;;;;24.30;99.10;;;;;;4874238;29;19932;-63
2022/06/05 07:46:29;;;;;;;;;;;24.30;99.10;;;;;;4860279;29;19935;-61
2022/06/05 07:48:57;;;;;;;;;;;24.30;99.00;;;;;;4874241;29;19932;-62
2022/06/05 07:54:28;;;;;;;;;;;24.30;99.00;;;;;;4862426;29;19955;-61
2022/06/05 07:56:56;;;;;;;;;;;24.30;98.90;;;;;;4878461;29;19938;-60
2022/06/05 07:59:24;;;;;;;;;;;24.30;98.80;;;;;;4872472;29;19951;-63
2022/06/05 08:01:56;;;;;;;;;;;24.20;98.80;;;;;;4860510;29;20000;-61
2022/06/05 08:04:25;;;;;;;;;;;24.20;98.70;;;;;;4869725;29;19928;-61
2022/06/05 08:06:53;;;;;;;;;;;24.20;98.70;;;;;;4867340;29;19959;-62
2022/06/05 08:09:21;;;;;;;;;;;24.20;98.70;;;;;;4869228;29;19936;-61
2022/06/05 08:11:48;;;;;;;;;;;24.10;98.60;;;;;;4871358;29;19927;-60
2022/06/05 08:14:15;;;;;;;;;;;24.10;98.70;;;;;;4876427;29;19939;-64
2022/06/05 08:16:43;;;;;;;;;;;24.10;98.70;;;;;;4867377;29;19981;-60
2022/06/05 08:19:12;;;;;;;;;;;24.10;98.60;;;;;;4872833;29;19939;-62
2022/06/05 08:21:40;;;;;;;;;;;24.10;98.60;;;;;;4878399;29;19932;-62
2022/06/05 08:24:07;;;;;;;;;;;24.10;98.60;;;;;;4876019;29;19939;-63
2022/06/05 08:26:35;;;;;;;;;;;24.20;98.70;;;;;;4877840;29;19931;-61
2022/06/05 08:29:03;;;;;;;;;;;24.20;98.70;;;;;;4857362;29;19935;-59
2022/06/05 08:31:30;;;;;;;;;;;24.20;98.70;;;;;;4861463;29;19935;-63
2022/06/05 08:33:58;;;;;;;;;;;24.20;98.70;;;;;;4850729;29;19928;-60
2022/06/05 08:36:25;;;;;;;;;;;24.20;98.70;;;;;;4878590;29;19938;-63
2022/06/05 08:41:38;;;;;;;;;;;24.20;98.60;;;;;;4868221;29;19928;-63
2022/06/05 08:44:29;;;;;;;;;;;24.20;98.60;;;;;;4859084;29;19932;-61
2022/06/05 08:47:11;;;;;;;;;;;24.20;98.60;;;;;;4859272;29;19947;-59
2022/06/05 08:49:46;;;;;;;;;;;24.20;98.60;;;;;;4862174;29;19928;-62
2022/06/05 08:52:33;;;;;;;;;;;24.20;98.70;;;;;;4859081;29;19997;-62
2022/06/05 08:55:12;;;;;;;;;;;24.20;98.70;;;;;;4849766;29;20017;-63
2022/06/05 08:57:42;;;;;;;;;;;24.20;98.70;;;;;;4890409;29;19932;-56
2022/06/05 09:00:16;;;;;;;;;;;24.20;98.80;;;;;;4864365;29;20476;-58
2022/06/05 09:02:47;;;;;;;;;;;24.20;98.80;;;;;;4859789;29;20369;-61
2022/06/05 09:05:30;;;;;;;;;;;24.20;98.80;;;;;;4847266;29;19936;-61
2022/06/05 09:07:59;;;;;;;;;;;24.20;98.90;;;;;;4869926;29;19935;-61
2022/06/05 09:10:27;;;;;;;;;;;24.20;98.90;;;;;;4877247;29;20037;-61
2022/06/05 09:13:04;;;;;;;;;;;24.20;98.90;;;;;;4862459;29;19928;-59
2022/06/05 09:15:37;;;;;;;;;;;24.20;98.90;;;;;;4868543;29;19950;-59
2022/06/05 09:18:11;;;;;;;;;;;24.20;98.90;;;;;;4861394;29;20234;-63
2022/06/05 09:20:39;;;;;;;;;;;24.20;98.90;;;;;;4860454;29;19928;-62
2022/06/05 09:23:11;;;;;;;;;;;24.20;98.90;;;;;;4859980;29;19940;-60
2022/06/05 09:25:40;;;;;;;;;;;24.20;99.00;;;;;;4866452;29;19939;-61
2022/06/05 09:28:18;;;;;;;;;;;24.20;99.00;;;;;;4858579;29;19928;-60
2022/06/05 09:31:02;;;;;;;;;;;24.20;99.00;;;;;;4851803;29;20666;-60
2022/06/05 09:33:34;;;;;;;;;;;24.20;99.10;;;;;;4858576;29;19939;-61
2022/06/05 09:36:04;;;;;;;;;;;24.20;99.10;;;;;;4859495;29;19967;-63
2022/06/05 09:39:01;;;;;;;;;;;24.20;99.10;;;;;;4858646;29;20335;-60
2022/06/05 09:41:43;;;;;;;;;;;24.20;99.10;;;;;;4853179;29;19932;-58
2022/06/05 09:44:21;;;;;;;;;;;24.20;99.10;;;;;;4864622;29;20285;-63
2022/06/05 09:46:54;;;;;;;;;;;24.20;99.20;;;;;;4869686;29;20345;-57
2022/06/05 09:49:25;;;;;;;;;;;24.20;99.20;;;;;;4842421;29;20427;-58
2022/06/05 09:51:53;;;;;;;;;;;24.20;99.10;;;;;;4870850;29;19955;-60
2022/06/05 09:54:29;;;;;;;;;;;24.10;99.10;;;;;;4859345;29;20216;-62
2022/06/05 09:59:49;;;;;;;;;;;24.20;99.10;;;;;;4862836;29;19939;-61
2022/06/05 10:02:19;;;;;;;;;;;24.20;99.10;;;;;;4875421;29;19938;-59
2022/06/05 10:04:47;;;;;;;;;;;24.20;99.10;;;;;;4857422;29;20004;-62
2022/06/05 10:07:37;;;;;;;;;;;24.20;99.20;;;;;;4857719;29;20297;-57
2022/06/05 10:10:06;;;;;;;;;;;24.20;99.20;;;;;;4868400;29;19932;-61
2022/06/05 10:12:38;;;;;;;;;;;24.20;99.10;;;;;;4862195;29;20027;-62
2022/06/05 10:15:23;;;;;;;;;;;24.20;99.10;;;;;;4859058;29;20339;-62
2022/06/05 10:17:53;;;;;;;;;;;24.10;99.10;;;;;;4863794;29;20006;-60
2022/06/05 10:20:23;;;;;;;;;;;24.20;99.40;;;;;;4884195;29;19931;-63
2022/06/05 10:23:00;;;;;;;;;;;24.20;99.10;;;;;;4862739;29;20023;-60
2022/06/05 10:25:39;;;;;;;;;;;24.20;99.10;;;;;;4864884;29;19927;-65
2022/06/05 10:28:11;;;;;;;;;;;24.20;99.00;;;;;;4874331;29;19928;-60
2022/06/05 10:30:42;;;;;;;;;;;24.20;99.10;;;;;;4868517;29;19938;-66
2022/06/05 10:33:17;;;;;;;;;;;24.20;99.00;;;;;;4848897;29;19928;-60
2022/06/05 10:35:59;;;;;;;;;;;24.20;99.00;;;;;;4866149;29;19947;-61
2022/06/05 10:38:26;;;;;;;;;;;24.20;99.00;;;;;;4841173;29;19928;-63
2022/06/05 10:40:55;;;;;;;;;;;24.20;99.00;;;;;;4866409;29;19944;-65
2022/06/05 10:43:25;;;;;;;;;;;24.20;99.00;;;;;;4876077;29;19931;-62
2022/06/05 10:45:58;;;;;;;;;;;24.30;99.00;;;;;;4875418;29;20297;-57
2022/06/05 10:48:39;;;;;;;;;;;24.20;99.00;;;;;;4868536;29;19931;-64
2022/06/05 10:51:21;;;;;;;;;;;24.30;99.00;;;;;;4874030;29;19939;-61
2022/06/05 10:54:08;;;;;;;;;;;24.30;99.00;;;;;;4856383;29;19939;-63
2022/06/05 10:56:46;;;;;;;;;;;24.20;99.00;;;;;;4849980;29;19931;-63
2022/06/05 10:59:32;;;;;;;;;;;24.20;99.00;;;;;;4834580;29;20023;-57
2022/06/05 11:02:03;;;;;;;;;;;24.20;99.00;;;;;;4862360;29;19929;-60
2022/06/05 11:04:33;;;;;;;;;;;24.20;99.00;;;;;;4857154;29;19928;-60
2022/06/05 11:07:22;;;;;;;;;;;24.20;99.00;;;;;;4865581;29;20395;-61
2022/06/05 11:09:57;;;;;;;;;;;24.20;99.00;;;;;;4857266;29;19943;-58
2022/06/05 11:15:22;;;;;;;;;;;24.20;99.00;;;;;;4857110;29;19928;-55
2022/06/05 11:18:08;;;;;;;;;;;24.20;99.00;;;;;;4862120;29;19928;-56
2022/06/05 11:20:36;;;;;;;;;;;24.20;99.00;;;;;;4858802;29;19932;-61
2022/06/05 11:23:03;;;;;;;;;;;24.20;99.00;;;;;;4869654;29;19928;-64
2022/06/05 11:25:30;;;;;;;;;;;24.20;99.00;;;;;;4872857;29;20455;-67
2022/06/05 11:28:22;;;;;;;;;;;24.20;99.00;;;;;;4847722;29;19936;-68
2022/06/05 11:30:50;;;;;;;;;;;24.20;99.00;;;;;;4872047;29;19987;-68
2022/06/05 11:33:23;;;;;;;;;;;24.20;99.00;;;;;;4865498;29;19939;-68
2022/06/05 11:36:06;;;;;;;;;;;24.20;99.00;;;;;;4866648;29;19932;-69
2022/06/05 11:38:53;;;;;;;;;;;24.20;99.00;;;;;;4867333;29;19935;-62
2022/06/05 11:41:25;;;;;;;;;;;24.20;99.00;;;;;;4869007;29;20400;-66
2022/06/05 11:44:18;;;;;;;;;;;24.20;99.00;;;;;;4859516;29;19936;-67
2022/06/05 11:46:54;;;;;;;;;;;24.20;99.00;;;;;;4861965;29;20269;-68
2022/06/05 11:49:36;;;;;;;;;;;24.20;99.00;;;;;;4878253;29;19928;-67
2022/06/05 11:52:31;;;;;;;;;;;24.20;99.00;;;;;;4844514;29;19932;-68
2022/06/05 11:55:05;;;;;;;;;;;24.10;99.00;;;;;;4834345;29;19939;-67
2022/06/05 11:57:37;;;;;;;;;;;24.20;99.00;;;;;;4868085;29;19939;-68
2022/06/05 12:00:15;;;;;;;;;;;24.10;99.00;;;;;;4841651;29;19928;-69
2022/06/05 12:02:48;;;;;;;;;;;24.20;99.00;;;;;;4871667;29;20043;-65
2022/06/05 12:05:20;;;;;;;;;;;24.20;99.00;;;;;;4869065;29;19939;-67
2022/06/05 12:07:48;;;;;;;;;;;24.20;99.00;;;;;;4871244;29;20432;-64
2022/06/05 12:10:18;;;;;;;;;;;24.20;99.00;;;;;;4864516;29;20292;-67
2022/06/05 12:12:47;;;;;;;;;;;24.10;98.90;;;;;;4874542;29;19950;-67
2022/06/05 12:15:25;;;;;;;;;;;24.20;98.90;;;;;;4879863;29;19936;-68
2022/06/05 12:18:04;;;;;;;;;;;24.10;98.90;;;;;;4861798;29;19928;-63
2022/06/05 12:20:49;;;;;;;;;;;24.20;99.00;;;;;;4883450;29;19932;-67
2022/06/05 12:23:33;;;;;;;;;;;24.10;98.90;;;;;;4860721;29;19939;-65
2022/06/05 12:26:03;;;;;;;;;;;24.10;98.90;;;;;;4872825;29;19942;-64
2022/06/05 12:28:41;;;;;;;;;;;24.10;98.90;;;;;;4873566;29;19954;-65
2022/06/05 12:31:13;;;;;;;;;;;24.10;98.90;;;;;;4873845;29;20315;-67
2022/06/05 12:33:54;;;;;;;;;;;24.20;98.90;;;;;;4859891;29;19932;-68
2022/06/05 12:36:26;;;;;;;;;;;24.10;98.90;;;;;;4867880;29;19928;-66
2022/06/05 12:38:57;;;;;;;;;;;24.20;98.90;;;;;;4861254;29;19939;-60
2022/06/05 12:41:43;;;;;;;;;;;24.20;98.90;;;;;;4874096;29;19936;-62
2022/06/05 12:44:29;;;;;;;;;;;24.20;98.90;;;;;;4888504;29;19931;-58
2022/06/05 12:47:16;;;;;;;;;;;24.20;99.00;;;;;;4844744;29;19928;-60
2022/06/05 12:49:53;;;;;;;;;;;24.20;98.90;;;;;;4858440;29;19939;-60
2022/06/05 12:52:30;;;;;;;;;;;24.20;98.90;;;;;;4850875;29;19932;-62
2022/06/05 12:55:03;;;;;;;;;;;24.20;98.90;;;;;;4867899;29;19965;-61
2022/06/05 12:57:58;;;;;;;;;;;24.30;99.00;;;;;;4867061;29;19939;-61
2022/06/05 13:00:31;;;;;;;;;;;24.20;99.20;;;;;;4847967;29;19935;-61
2022/06/05 13:03:01;;;;;;;;;;;24.20;99.00;;;;;;4846996;29;20436;-61
2022/06/05 13:05:41;;;;;;;;;;;24.20;99.10;;;;;;4864615;29;19939;-60
2022/06/05 13:08:13;;;;;;;;;;;24.20;99.10;;;;;;4862394;29;19939;-59
2022/06/05 13:10:46;;;;;;;;;;;24.20;99.10;;;;;;4866204;29;19952;-62
2022/06/05 13:13:17;;;;;;;;;;;24.20;99.10;;;;;;4872903;29;20015;-62
2022/06/05 13:15:58;;;;;;;;;;;24.20;99.10;;;;;;4883705;29;20027;-57
2022/06/05 13:18:40;;;;;;;;;;;24.20;99.10;;;;;;4868918;29;20408;-62
2022/06/05 13:21:14;;;;;;;;;;;24.20;99.10;;;;;;4870287;29;19935;-58
2022/06/05 13:23:57;;;;;;;;;;;24.20;99.10;;;;;;4857386;29;19955;-62
2022/06/05 13:26:36;;;;;;;;;;;24.20;99.10;;;;;;4864534;29;19928;-62
2022/06/05 13:29:12;;;;;;;;;;;24.20;99.10;;;;;;4863677;29;19928;-61
2022/06/05 13:31:58;;;;;;;;;;;24.20;99.10;;;;;;4873244;29;20265;-61
2022/06/05 13:34:48;;;;;;;;;;;24.20;99.10;;;;;;4859927;29;20281;-63
2022/06/05 13:37:24;;;;;;;;;;;24.20;99.00;;;;;;4865873;29;19932;-62
2022/06/05 13:40:13;;;;;;;;;;;24.20;99.00;;;;;;4857934;29;19928;-59
2022/06/05 13:42:41;;;;;;;;;;;24.20;99.10;;;;;;4862511;29;20421;-59
2022/06/05 13:45:22;;;;;;;;;;;24.20;99.10;;;;;;4861010;29;19928;-62
2022/06/05 13:47:58;;;;;;;;;;;24.20;99.10;;;;;;4865211;29;19970;-59
2022/06/05 13:50:25;;;;;;;;;;;24.20;99.10;;;;;;4864897;29;19942;-59
2022/06/05 13:52:59;;;;;;;;;;;24.20;99.10;;;;;;4869707;29;19932;-56
2022/06/05 13:55:29;;;;;;;;;;;24.20;99.10;;;;;;4861479;29;20001;-60
2022/06/05 13:58:08;;;;;;;;;;;24.20;99.10;;;;;;4858161;29;19932;-59
2022/06/05 14:00:51;;;;;;;;;;;24.20;99.10;;;;;;4864848;29;19932;-62
2022/06/05 14:03:32;;;;;;;;;;;24.20;99.10;;;;;;4859840;29;20380;-59
2022/06/05 14:06:01;;;;;;;;;;;24.20;99.10;;;;;;4858883;29;19943;-63
2022/06/05 14:08:33;;;;;;;;;;;24.20;99.10;;;;;;4857413;29;20258;-60
2022/06/05 14:11:02;;;;;;;;;;;24.20;99.10;;;;;;4861298;29;19939;-60
2022/06/05 14:13:41;;;;;;;;;;;24.20;99.20;;;;;;4862602;29;19932;-61
2022/06/05 14:16:09;;;;;;;;;;;24.20;99.20;;;;;;4857345;29;19928;-62
2022/06/05 14:18:41;;;;;;;;;;;24.20;99.10;;;;;;4866888;29;19928;-62
2022/06/05 14:21:13;;;;;;;;;;;24.20;99.20;;;;;;4870684;29;19932;-60
2022/06/05 14:23:43;;;;;;;;;;;24.20;99.20;;;;;;4867761;29;19954;-55
2022/06/05 14:26:12;;;;;;;;;;;24.20;99.20;;;;;;4886366;29;19932;-60
2022/06/05 14:28:40;;;;;;;;;;;24.10;99.20;;;;;;4857708;29;19976;-60
2022/06/05 14:31:10;;;;;;;;;;;24.20;99.20;;;;;;4870582;29;19931;-60
2022/06/05 14:33:40;;;;;;;;;;;24.20;99.20;;;;;;4874435;29;19928;-62
2022/06/05 14:36:15;;;;;;;;;;;24.20;99.20;;;;;;4869566;29;19931;-60
2022/06/05 14:38:52;;;;;;;;;;;24.20;99.20;;;;;;4857354;29;19932;-60
2022/06/05 14:41:19;;;;;;;;;;;24.20;99.20;;;;;;4859628;29;19939;-61
2022/06/05 14:43:49;;;;;;;;;;;24.20;99.30;;;;;;4869405;29;19940;-61
2022/06/05 14:46:17;;;;;;;;;;;24.20;99.20;;;;;;4856667;29;19932;-63
2022/06/05 14:48:58;;;;;;;;;;;24.20;99.30;;;;;;4867134;29;19939;-60
2022/06/05 14:51:32;;;;;;;;;;;24.20;99.30;;;;;;4863466;29;20098;-63
2022/06/05 14:54:17;;;;;;;;;;;24.10;99.30;;;;;;4857697;29;20324;-57
2022/06/05 14:59:51;;;;;;;;;;;24.20;99.30;;;;;;4876372;29;19932;-60
2022/06/05 15:02:27;;;;;;;;;;;24.20;99.30;;;;;;4857902;29;19928;-61
2022/06/05 15:05:03;;;;;;;;;;;24.20;99.30;;;;;;4867866;29;19928;-63